sensor_id;sensor_type;location;lat;lon;timestamp;temperature;humidity
3562;DHT22;1795;52.074;4.754;2022-12-18T00:01:30;-1.50;99.90
3562;DHT22;1795;52.074;4.754;2022-12-18T00:04:01;-1.50;99.90
3562;DHT22;1795;52.074;4.754;2022-12-18T00:06:32;-1.50;99.90
3562;DHT22;1795;52.074;4.754;2022-12-18T00:09:03;-1.50;99.90
3562;DHT22;1795;52.074;4.754;2022-12-18T00:11:31;-1.50;99.90
3562;DHT22;1795;52.074;4.754;2022-12-18T00:13:59;-1.60;99.90
3562;DHT22;1795;52.074;4.754;2022-12-18T00:16:29;-1.60;99.90
3562;DHT22;1795;52.074;4.754;2022-12-18T00:19:00;-1.50;99.90
3562;DHT22;1795;52.074;4.754;2022-12-18T00:21:29;-1.50;99.90
3562;DHT22;1795;52.074;4.754;2022-12-18T00:23:59;-1.50;99.90
3562;DHT22;1795;52.074;4.754;2022-12-18T00:26:30;-1.60;99.90
3562;DHT22;1795;52.074;4.754;2022-12-18T00:29:00;-1.60;99.90
3562;DHT22;1795;52.074;4.754;2022-12-18T00:31:31;-1.50;99.90
3562;DHT22;1795;52.074;4.754;2022-12-18T00:33:59;-1.50;99.90
3562;DHT22;1795;52.074;4.754;2022-12-18T00:36:29;-1.50;99.90
3562;DHT22;1795;52.074;4.754;2022-12-18T00:38:59;-1.50;99.90
3562;DHT22;1795;52.074;4.754;2022-12-18T00:41:29;-1.60;99.90
3562;DHT22;1795;52.074;4.754;2022-12-18T00:44:15;-1.60;99.90
3562;DHT22;1795;52.074;4.754;2022-12-18T00:46:45;-1.50;99.90
3562;DHT22;1795;52.074;4.754;2022-12-18T00:49:14;-1.50;99.90
3562;DHT22;1795;52.074;4.754;2022-12-18T00:51:42;-1.60;99.90
3562;DHT22;1795;52.074;4.754;2022-12-18T00:54:10;-1.50;99.90
3562;DHT22;1795;52.074;4.754;2022-12-18T00:56:40;-1.60;99.90
3562;DHT22;1795;52.074;4.754;2022-12-18T00:59:15;-1.70;99.90
3562;DHT22;1795;52.074;4.754;2022-12-18T01:01:43;-1.50;99.90
3562;DHT22;1795;52.074;4.754;2022-12-18T01:04:12;-1.60;99.90
3562;DHT22;1795;52.074;4.754;2022-12-18T01:06:40;-1.70;99.90
3562;DHT22;1795;52.074;4.754;2022-12-18T01:09:08;-1.60;99.90
3562;DHT22;1795;52.074;4.754;2022-12-18T01:11:36;-1.60;99.90
3562;DHT22;1795;52.074;4.754;2022-12-18T01:14:05;-1.70;99.90
3562;DHT22;1795;52.074;4.754;2022-12-18T01:16:34;-1.60;99.90
3562;DHT22;1795;52.074;4.754;2022-12-18T01:19:02;-1.70;99.90
3562;DHT22;1795;52.074;4.754;2022-12-18T01:21:30;-1.70;99.90
3562;DHT22;1795;52.074;4.754;2022-12-18T01:23:58;-1.70;99.90
3562;DHT22;1795;52.074;4.754;2022-12-18T01:26:26;-1.70;99.90
3562;DHT22;1795;52.074;4.754;2022-12-18T01:28:56;-1.70;99.90
3562;DHT22;1795;52.074;4.754;2022-12-18T01:31:28;-1.80;99.90
3562;DHT22;1795;52.074;4.754;2022-12-18T01:33:57;-1.70;99.90
3562;DHT22;1795;52.074;4.754;2022-12-18T01:36:26;-1.70;99.90
3562;DHT22;1795;52.074;4.754;2022-12-18T01:38:55;-1.70;99.90
3562;DHT22;1795;52.074;4.754;2022-12-18T01:41:27;-1.70;99.90
3562;DHT22;1795;52.074;4.754;2022-12-18T01:47:24;-1.70;99.90
3562;DHT22;1795;52.074;4.754;2022-12-18T01:49:53;-1.80;99.90
3562;DHT22;1795;52.074;4.754;2022-12-18T01:52:22;-1.70;99.90
3562;DHT22;1795;52.074;4.754;2022-12-18T01:54:53;-1.70;99.90
3562;DHT22;1795;52.074;4.754;2022-12-18T01:57:22;-1.70;99.90
3562;DHT22;1795;52.074;4.754;2022-12-18T01:59:53;-1.80;99.90
3562;DHT22;1795;52.074;4.754;2022-12-18T02:02:26;-1.80;99.90
3562;DHT22;1795;52.074;4.754;2022-12-18T02:04:55;-1.70;99.90
3562;DHT22;1795;52.074;4.754;2022-12-18T02:07:32;-1.70;99.90
3562;DHT22;1795;52.074;4.754;2022-12-18T02:10:07;-1.90;99.90
3562;DHT22;1795;52.074;4.754;2022-12-18T02:12:43;-1.80;99.90
3562;DHT22;1795;52.074;4.754;2022-12-18T02:15:17;-1.80;99.90
3562;DHT22;1795;52.074;4.754;2022-12-18T02:17:52;-1.90;99.90
3562;DHT22;1795;52.074;4.754;2022-12-18T02:20:27;-1.70;99.90
3562;DHT22;1795;52.074;4.754;2022-12-18T02:23:06;-1.80;99.90
3562;DHT22;1795;52.074;4.754;2022-12-18T02:28:30;-1.80;99.90
3562;DHT22;1795;52.074;4.754;2022-12-18T02:31:01;-1.90;99.90
3562;DHT22;1795;52.074;4.754;2022-12-18T02:33:31;-1.80;99.90
3562;DHT22;1795;52.074;4.754;2022-12-18T02:36:00;-1.80;99.90
3562;DHT22;1795;52.074;4.754;2022-12-18T02:38:30;-1.80;99.90
3562;DHT22;1795;52.074;4.754;2022-12-18T02:40:59;-1.80;99.90
3562;DHT22;1795;52.074;4.754;2022-12-18T02:43:29;-1.80;99.90
3562;DHT22;1795;52.074;4.754;2022-12-18T02:45:59;-1.80;99.90
3562;DHT22;1795;52.074;4.754;2022-12-18T02:48:30;-1.80;99.90
3562;DHT22;1795;52.074;4.754;2022-12-18T02:51:02;-1.80;99.90
3562;DHT22;1795;52.074;4.754;2022-12-18T02:53:36;-1.90;99.90
3562;DHT22;1795;52.074;4.754;2022-12-18T02:56:12;-1.90;99.90
3562;DHT22;1795;52.074;4.754;2022-12-18T02:58:48;-1.90;99.90
3562;DHT22;1795;52.074;4.754;2022-12-18T03:01:25;-1.90;99.90
3562;DHT22;1795;52.074;4.754;2022-12-18T03:03:57;-1.90;99.90
3562;DHT22;1795;52.074;4.754;2022-12-18T03:06:29;-1.80;99.90
3562;DHT22;1795;52.074;4.754;2022-12-18T03:09:02;-2.00;99.90
3562;DHT22;1795;52.074;4.754;2022-12-18T03:11:33;-1.90;99.90
3562;DHT22;1795;52.074;4.754;2022-12-18T03:14:21;-2.00;99.90
3562;DHT22;1795;52.074;4.754;2022-12-18T03:16:53;-2.00;99.90
3562;DHT22;1795;52.074;4.754;2022-12-18T03:19:25;-2.00;99.90
3562;DHT22;1795;52.074;4.754;2022-12-18T03:21:55;-2.00;99.90
3562;DHT22;1795;52.074;4.754;2022-12-18T03:24:25;-1.90;99.90
3562;DHT22;1795;52.074;4.754;2022-12-18T03:26:57;-1.90;99.90
3562;DHT22;1795;52.074;4.754;2022-12-18T03:29:32;-1.90;99.90
3562;DHT22;1795;52.074;4.754;2022-12-18T03:32:11;-2.00;99.90
3562;DHT22;1795;52.074;4.754;2022-12-18T03:34:41;-2.00;99.90
3562;DHT22;1795;52.074;4.754;2022-12-18T03:37:10;-1.90;99.90
3562;DHT22;1795;52.074;4.754;2022-12-18T03:39:38;-2.00;99.90
3562;DHT22;1795;52.074;4.754;2022-12-18T03:42:08;-2.00;99.90
3562;DHT22;1795;52.074;4.754;2022-12-18T03:44:43;-2.00;99.90
3562;DHT22;1795;52.074;4.754;2022-12-18T03:47:15;-1.90;99.90
3562;DHT22;1795;52.074;4.754;2022-12-18T03:49:47;-2.00;99.90
3562;DHT22;1795;52.074;4.754;2022-12-18T03:52:22;-2.00;99.90
3562;DHT22;1795;52.074;4.754;2022-12-18T03:54:54;-2.00;99.90
3562;DHT22;1795;52.074;4.754;2022-12-18T03:57:26;-2.00;99.90
3562;DHT22;1795;52.074;4.754;2022-12-18T04:00:02;-2.00;99.90
3562;DHT22;1795;52.074;4.754;2022-12-18T04:02:31;-2.10;99.90
3562;DHT22;1795;52.074;4.754;2022-12-18T04:05:04;-2.10;99.90
3562;DHT22;1795;52.074;4.754;2022-12-18T04:07:32;-2.10;99.90
3562;DHT22;1795;52.074;4.754;2022-12-18T04:10:02;-2.10;99.90
3562;DHT22;1795;52.074;4.754;2022-12-18T04:12:31;-2.10;99.90
3562;DHT22;1795;52.074;4.754;2022-12-18T04:15:00;-2.10;99.90
3562;DHT22;1795;52.074;4.754;2022-12-18T04:17:28;-2.00;99.90
3562;DHT22;1795;52.074;4.754;2022-12-18T04:19:56;-2.20;99.90
3562;DHT22;1795;52.074;4.754;2022-12-18T04:22:24;-2.20;99.90
3562;DHT22;1795;52.074;4.754;2022-12-18T04:24:52;-2.20;99.90
3562;DHT22;1795;52.074;4.754;2022-12-18T04:27:21;-2.10;99.90
3562;DHT22;1795;52.074;4.754;2022-12-18T04:29:49;-2.20;99.90
3562;DHT22;1795;52.074;4.754;2022-12-18T04:32:18;-2.20;99.90
3562;DHT22;1795;52.074;4.754;2022-12-18T04:34:46;-2.20;99.90
3562;DHT22;1795;52.074;4.754;2022-12-18T04:37:14;-2.10;99.90
3562;DHT22;1795;52.074;4.754;2022-12-18T04:39:42;-2.20;99.90
3562;DHT22;1795;52.074;4.754;2022-12-18T04:42:10;-2.30;99.90
3562;DHT22;1795;52.074;4.754;2022-12-18T04:44:38;-2.20;99.90
3562;DHT22;1795;52.074;4.754;2022-12-18T04:47:06;-2.30;99.90
3562;DHT22;1795;52.074;4.754;2022-12-18T04:49:36;-2.20;99.90
3562;DHT22;1795;52.074;4.754;2022-12-18T04:52:04;-2.30;99.90
3562;DHT22;1795;52.074;4.754;2022-12-18T04:54:32;-2.30;99.90
3562;DHT22;1795;52.074;4.754;2022-12-18T04:57:00;-2.30;99.90
3562;DHT22;1795;52.074;4.754;2022-12-18T04:59:28;-2.30;99.90
3562;DHT22;1795;52.074;4.754;2022-12-18T05:01:56;-2.40;99.90
3562;DHT22;1795;52.074;4.754;2022-12-18T05:04:24;-2.20;99.90
3562;DHT22;1795;52.074;4.754;2022-12-18T05:06:53;-2.40;99.90
3562;DHT22;1795;52.074;4.754;2022-12-18T05:09:22;-2.40;99.90
3562;DHT22;1795;52.074;4.754;2022-12-18T05:11:50;-2.30;99.90
3562;DHT22;1795;52.074;4.754;2022-12-18T05:14:18;-2.50;99.90
3562;DHT22;1795;52.074;4.754;2022-12-18T05:16:46;-2.40;99.90
3562;DHT22;1795;52.074;4.754;2022-12-18T05:19:14;-2.40;99.90
3562;DHT22;1795;52.074;4.754;2022-12-18T05:21:42;-2.60;99.90
3562;DHT22;1795;52.074;4.754;2022-12-18T05:24:13;-2.50;99.90
3562;DHT22;1795;52.074;4.754;2022-12-18T05:26:41;-2.50;99.90
3562;DHT22;1795;52.074;4.754;2022-12-18T05:29:09;-2.50;99.90
3562;DHT22;1795;52.074;4.754;2022-12-18T05:31:39;-2.50;99.90
3562;DHT22;1795;52.074;4.754;2022-12-18T05:34:09;-2.70;99.90
3562;DHT22;1795;52.074;4.754;2022-12-18T05:36:37;-2.60;99.90
3562;DHT22;1795;52.074;4.754;2022-12-18T05:39:05;-2.60;99.90
3562;DHT22;1795;52.074;4.754;2022-12-18T05:41:34;-2.70;99.90
3562;DHT22;1795;52.074;4.754;2022-12-18T05:44:02;-2.70;99.90
3562;DHT22;1795;52.074;4.754;2022-12-18T05:46:31;-2.70;99.90
3562;DHT22;1795;52.074;4.754;2022-12-18T05:49:00;-2.80;99.90
3562;DHT22;1795;52.074;4.754;2022-12-18T05:51:28;-2.80;99.90
3562;DHT22;1795;52.074;4.754;2022-12-18T05:53:56;-2.90;99.90
3562;DHT22;1795;52.074;4.754;2022-12-18T05:56:24;-2.80;99.90
3562;DHT22;1795;52.074;4.754;2022-12-18T05:58:54;-2.90;99.90
3562;DHT22;1795;52.074;4.754;2022-12-18T06:01:23;-2.90;99.90
3562;DHT22;1795;52.074;4.754;2022-12-18T06:03:52;-2.90;99.90
3562;DHT22;1795;52.074;4.754;2022-12-18T06:06:23;-3.00;99.90
3562;DHT22;1795;52.074;4.754;2022-12-18T06:08:52;-3.00;99.90
3562;DHT22;1795;52.074;4.754;2022-12-18T06:11:22;-3.00;99.90
3562;DHT22;1795;52.074;4.754;2022-12-18T06:13:53;-2.90;99.90
3562;DHT22;1795;52.074;4.754;2022-12-18T06:16:25;-3.00;99.90
3562;DHT22;1795;52.074;4.754;2022-12-18T06:18:53;-3.10;99.90
3562;DHT22;1795;52.074;4.754;2022-12-18T06:21:21;-3.10;99.90
3562;DHT22;1795;52.074;4.754;2022-12-18T06:23:49;-3.10;99.90
3562;DHT22;1795;52.074;4.754;2022-12-18T06:26:17;-3.20;99.90
3562;DHT22;1795;52.074;4.754;2022-12-18T06:28:54;-3.20;99.90
3562;DHT22;1795;52.074;4.754;2022-12-18T06:31:23;-3.20;99.90
3562;DHT22;1795;52.074;4.754;2022-12-18T06:33:52;-3.30;99.90
3562;DHT22;1795;52.074;4.754;2022-12-18T06:36:20;-3.30;99.90
3562;DHT22;1795;52.074;4.754;2022-12-18T06:38:48;-3.20;99.90
3562;DHT22;1795;52.074;4.754;2022-12-18T06:41:19;-3.20;99.90
3562;DHT22;1795;52.074;4.754;2022-12-18T06:43:47;-3.40;99.90
3562;DHT22;1795;52.074;4.754;2022-12-18T06:46:17;-3.40;99.90
3562;DHT22;1795;52.074;4.754;2022-12-18T06:48:47;-3.40;99.90
3562;DHT22;1795;52.074;4.754;2022-12-18T06:51:20;-3.40;99.90
3562;DHT22;1795;52.074;4.754;2022-12-18T06:53:49;-3.40;99.90
3562;DHT22;1795;52.074;4.754;2022-12-18T06:56:17;-3.40;99.90
3562;DHT22;1795;52.074;4.754;2022-12-18T06:58:45;-3.40;99.90
3562;DHT22;1795;52.074;4.754;2022-12-18T07:01:13;-3.50;99.90
3562;DHT22;1795;52.074;4.754;2022-12-18T07:03:43;-3.40;99.90
3562;DHT22;1795;52.074;4.754;2022-12-18T07:06:16;-3.50;99.90
3562;DHT22;1795;52.074;4.754;2022-12-18T07:08:45;-3.50;99.90
3562;DHT22;1795;52.074;4.754;2022-12-18T07:11:14;-3.60;99.90
3562;DHT22;1795;52.074;4.754;2022-12-18T07:13:42;-3.60;99.90
3562;DHT22;1795;52.074;4.754;2022-12-18T07:16:12;-3.50;99.90
3562;DHT22;1795;52.074;4.754;2022-12-18T07:18:49;-3.60;99.90
3562;DHT22;1795;52.074;4.754;2022-12-18T07:21:19;-3.60;99.90
3562;DHT22;1795;52.074;4.754;2022-12-18T07:23:47;-3.60;99.90
3562;DHT22;1795;52.074;4.754;2022-12-18T07:26:17;-3.70;99.90
3562;DHT22;1795;52.074;4.754;2022-12-18T07:28:45;-3.50;99.90
3562;DHT22;1795;52.074;4.754;2022-12-18T07:31:15;-3.60;99.90
3562;DHT22;1795;52.074;4.754;2022-12-18T07:33:44;-3.80;99.90
3562;DHT22;1795;52.074;4.754;2022-12-18T07:36:14;-3.70;99.90
3562;DHT22;1795;52.074;4.754;2022-12-18T07:38:42;-3.70;99.90
3562;DHT22;1795;52.074;4.754;2022-12-18T07:41:12;-3.70;99.90
3562;DHT22;1795;52.074;4.754;2022-12-18T07:43:41;-3.70;99.90
3562;DHT22;1795;52.074;4.754;2022-12-18T07:46:11;-3.80;99.90
3562;DHT22;1795;52.074;4.754;2022-12-18T07:48:40;-3.80;99.90
3562;DHT22;1795;52.074;4.754;2022-12-18T07:51:17;-3.80;99.90
3562;DHT22;1795;52.074;4.754;2022-12-18T07:53:45;-3.80;99.90
3562;DHT22;1795;52.074;4.754;2022-12-18T07:56:18;-3.80;99.90
3562;DHT22;1795;52.074;4.754;2022-12-18T07:58:56;-3.80;99.90
3562;DHT22;1795;52.074;4.754;2022-12-18T08:01:24;-3.70;99.90
3562;DHT22;1795;52.074;4.754;2022-12-18T08:03:53;-3.80;99.90
3562;DHT22;1795;52.074;4.754;2022-12-18T08:06:22;-3.90;99.90
3562;DHT22;1795;52.074;4.754;2022-12-18T08:08:51;-3.80;99.90
3562;DHT22;1795;52.074;4.754;2022-12-18T08:11:20;-3.90;99.90
3562;DHT22;1795;52.074;4.754;2022-12-18T08:13:48;-3.90;99.90
3562;DHT22;1795;52.074;4.754;2022-12-18T08:16:16;-3.70;99.90
3562;DHT22;1795;52.074;4.754;2022-12-18T08:18:45;-3.90;99.90
3562;DHT22;1795;52.074;4.754;2022-12-18T08:21:16;-3.90;99.90
3562;DHT22;1795;52.074;4.754;2022-12-18T08:23:49;-3.80;99.90
3562;DHT22;1795;52.074;4.754;2022-12-18T08:26:18;-3.90;99.90
3562;DHT22;1795;52.074;4.754;2022-12-18T08:28:47;-3.80;99.90
3562;DHT22;1795;52.074;4.754;2022-12-18T08:31:16;-3.90;99.90
3562;DHT22;1795;52.074;4.754;2022-12-18T08:33:45;-3.90;99.90
3562;DHT22;1795;52.074;4.754;2022-12-18T08:36:13;-3.80;99.90
3562;DHT22;1795;52.074;4.754;2022-12-18T08:38:41;-3.90;99.90
3562;DHT22;1795;52.074;4.754;2022-12-18T08:41:14;-3.90;99.90
3562;DHT22;1795;52.074;4.754;2022-12-18T08:43:42;-3.90;99.90
3562;DHT22;1795;52.074;4.754;2022-12-18T08:46:32;-3.90;99.90
3562;DHT22;1795;52.074;4.754;2022-12-18T08:49:01;-3.90;99.90
3562;DHT22;1795;52.074;4.754;2022-12-18T08:51:29;-3.80;99.90
3562;DHT22;1795;52.074;4.754;2022-12-18T08:53:57;-3.90;99.90
3562;DHT22;1795;52.074;4.754;2022-12-18T08:56:27;-3.90;99.90
3562;DHT22;1795;52.074;4.754;2022-12-18T08:58:56;-3.90;99.90
3562;DHT22;1795;52.074;4.754;2022-12-18T09:01:24;-3.90;99.90
3562;DHT22;1795;52.074;4.754;2022-12-18T09:03:52;-3.90;99.90
3562;DHT22;1795;52.074;4.754;2022-12-18T09:06:22;-3.70;99.90
3562;DHT22;1795;52.074;4.754;2022-12-18T09:08:50;-3.80;99.90
3562;DHT22;1795;52.074;4.754;2022-12-18T09:11:21;-3.80;99.90
3562;DHT22;1795;52.074;4.754;2022-12-18T09:13:51;-3.70;99.90
3562;DHT22;1795;52.074;4.754;2022-12-18T09:16:21;-3.80;99.90
3562;DHT22;1795;52.074;4.754;2022-12-18T09:18:57;-3.70;99.90
3562;DHT22;1795;52.074;4.754;2022-12-18T09:21:28;-3.70;99.90
3562;DHT22;1795;52.074;4.754;2022-12-18T09:23:56;-3.80;99.90
3562;DHT22;1795;52.074;4.754;2022-12-18T09:26:25;-3.70;99.90
3562;DHT22;1795;52.074;4.754;2022-12-18T09:28:54;-3.80;99.90
3562;DHT22;1795;52.074;4.754;2022-12-18T09:31:23;-3.70;99.90
3562;DHT22;1795;52.074;4.754;2022-12-18T09:33:51;-3.70;99.90
3562;DHT22;1795;52.074;4.754;2022-12-18T09:36:19;-3.70;99.90
3562;DHT22;1795;52.074;4.754;2022-12-18T09:38:47;-3.70;99.90
3562;DHT22;1795;52.074;4.754;2022-12-18T09:41:38;-3.60;99.90
3562;DHT22;1795;52.074;4.754;2022-12-18T09:44:16;-3.60;99.90
3562;DHT22;1795;52.074;4.754;2022-12-18T09:46:50;-3.50;99.90
3562;DHT22;1795;52.074;4.754;2022-12-18T09:49:22;-3.60;99.90
3562;DHT22;1795;52.074;4.754;2022-12-18T09:51:54;-3.60;99.90
3562;DHT22;1795;52.074;4.754;2022-12-18T09:54:25;-3.60;99.90
3562;DHT22;1795;52.074;4.754;2022-12-18T09:56:54;-3.40;99.90
3562;DHT22;1795;52.074;4.754;2022-12-18T09:59:26;-3.40;99.90
3562;DHT22;1795;52.074;4.754;2022-12-18T10:01:57;-3.50;99.90
3562;DHT22;1795;52.074;4.754;2022-12-18T10:04:27;-3.50;99.90
3562;DHT22;1795;52.074;4.754;2022-12-18T10:07:02;-3.50;99.90
3562;DHT22;1795;52.074;4.754;2022-12-18T10:09:38;-3.40;99.90
3562;DHT22;1795;52.074;4.754;2022-12-18T10:12:14;-3.40;99.90
3562;DHT22;1795;52.074;4.754;2022-12-18T10:14:51;-3.40;99.90
3562;DHT22;1795;52.074;4.754;2022-12-18T10:17:28;-3.30;99.90
3562;DHT22;1795;52.074;4.754;2022-12-18T10:20:02;-3.30;99.90
3562;DHT22;1795;52.074;4.754;2022-12-18T10:22:41;-3.20;99.90
3562;DHT22;1795;52.074;4.754;2022-12-18T10:25:20;-3.30;99.90
3562;DHT22;1795;52.074;4.754;2022-12-18T10:27:52;-3.10;99.90
3562;DHT22;1795;52.074;4.754;2022-12-18T10:30:24;-3.20;99.90
3562;DHT22;1795;52.074;4.754;2022-12-18T10:32:52;-3.20;99.90
3562;DHT22;1795;52.074;4.754;2022-12-18T10:35:23;-3.10;99.90
3562;DHT22;1795;52.074;4.754;2022-12-18T10:38:05;-3.10;99.90
3562;DHT22;1795;52.074;4.754;2022-12-18T10:40:48;-3.00;99.90
3562;DHT22;1795;52.074;4.754;2022-12-18T10:43:20;-3.10;99.90
3562;DHT22;1795;52.074;4.754;2022-12-18T10:46:11;-3.10;99.90
3562;DHT22;1795;52.074;4.754;2022-12-18T10:48:53;-3.00;99.90
3562;DHT22;1795;52.074;4.754;2022-12-18T10:51:24;-3.00;99.90
3562;DHT22;1795;52.074;4.754;2022-12-18T10:53:56;-2.90;99.90
3562;DHT22;1795;52.074;4.754;2022-12-18T10:56:26;-2.80;99.90
3562;DHT22;1795;52.074;4.754;2022-12-18T10:59:00;-2.80;99.90
3562;DHT22;1795;52.074;4.754;2022-12-18T11:01:46;-2.90;99.90
3562;DHT22;1795;52.074;4.754;2022-12-18T11:04:18;-2.90;99.90
3562;DHT22;1795;52.074;4.754;2022-12-18T11:06:57;-2.70;99.90
3562;DHT22;1795;52.074;4.754;2022-12-18T11:09:27;-2.80;99.90
3562;DHT22;1795;52.074;4.754;2022-12-18T11:11:58;-2.60;99.90
3562;DHT22;1795;52.074;4.754;2022-12-18T11:14:28;-2.70;99.90
3562;DHT22;1795;52.074;4.754;2022-12-18T11:16:58;-2.70;99.90
3562;DHT22;1795;52.074;4.754;2022-12-18T11:19:52;-2.60;99.90
3562;DHT22;1795;52.074;4.754;2022-12-18T11:22:24;-2.60;99.90
3562;DHT22;1795;52.074;4.754;2022-12-18T11:24:56;-2.60;99.90
3562;DHT22;1795;52.074;4.754;2022-12-18T11:27:48;-2.40;99.90
3562;DHT22;1795;52.074;4.754;2022-12-18T11:30:22;-2.50;99.90
3562;DHT22;1795;52.074;4.754;2022-12-18T11:32:54;-2.50;99.90
3562;DHT22;1795;52.074;4.754;2022-12-18T11:35:32;-2.30;99.90
3562;DHT22;1795;52.074;4.754;2022-12-18T11:38:06;-2.40;99.90
3562;DHT22;1795;52.074;4.754;2022-12-18T11:40:41;-2.40;99.90
3562;DHT22;1795;52.074;4.754;2022-12-18T11:43:13;-2.40;99.90
3562;DHT22;1795;52.074;4.754;2022-12-18T11:45:47;-2.30;99.90
3562;DHT22;1795;52.074;4.754;2022-12-18T11:48:22;-2.30;99.90
3562;DHT22;1795;52.074;4.754;2022-12-18T11:50:52;-2.10;99.90
3562;DHT22;1795;52.074;4.754;2022-12-18T11:53:22;-2.30;99.90
3562;DHT22;1795;52.074;4.754;2022-12-18T11:56:04;-2.20;99.90
3562;DHT22;1795;52.074;4.754;2022-12-18T11:58:44;-2.20;99.90
3562;DHT22;1795;52.074;4.754;2022-12-18T12:01:28;-2.00;99.90
3562;DHT22;1795;52.074;4.754;2022-12-18T12:04:22;-2.10;99.90
3562;DHT22;1795;52.074;4.754;2022-12-18T12:07:00;-2.00;99.90
3562;DHT22;1795;52.074;4.754;2022-12-18T12:09:37;-2.00;99.90
3562;DHT22;1795;52.074;4.754;2022-12-18T12:12:24;-1.80;99.90
3562;DHT22;1795;52.074;4.754;2022-12-18T12:15:02;-1.70;99.90
3562;DHT22;1795;52.074;4.754;2022-12-18T12:17:37;-1.80;99.90
3562;DHT22;1795;52.074;4.754;2022-12-18T12:20:15;-1.80;99.90
3562;DHT22;1795;52.074;4.754;2022-12-18T12:22:53;-1.70;99.90
3562;DHT22;1795;52.074;4.754;2022-12-18T12:25:33;-1.70;99.90
3562;DHT22;1795;52.074;4.754;2022-12-18T12:28:15;-1.70;99.90
3562;DHT22;1795;52.074;4.754;2022-12-18T12:30:55;-1.50;99.90
3562;DHT22;1795;52.074;4.754;2022-12-18T12:33:35;-1.60;99.90
3562;DHT22;1795;52.074;4.754;2022-12-18T12:36:15;-1.50;99.90
3562;DHT22;1795;52.074;4.754;2022-12-18T12:38:48;-1.50;99.90
3562;DHT22;1795;52.074;4.754;2022-12-18T12:41:20;-1.50;99.90
3562;DHT22;1795;52.074;4.754;2022-12-18T12:44:12;-1.40;99.90
3562;DHT22;1795;52.074;4.754;2022-12-18T12:46:42;-1.30;99.90
3562;DHT22;1795;52.074;4.754;2022-12-18T12:49:14;-1.40;99.90
3562;DHT22;1795;52.074;4.754;2022-12-18T12:51:46;-1.40;99.90
3562;DHT22;1795;52.074;4.754;2022-12-18T12:54:21;-1.40;99.90
3562;DHT22;1795;52.074;4.754;2022-12-18T12:56:54;-1.30;99.90
3562;DHT22;1795;52.074;4.754;2022-12-18T12:59:30;-1.20;99.90
3562;DHT22;1795;52.074;4.754;2022-12-18T13:02:02;-1.20;99.90
3562;DHT22;1795;52.074;4.754;2022-12-18T13:04:38;-1.20;99.90
3562;DHT22;1795;52.074;4.754;2022-12-18T13:07:14;-1.30;99.90
3562;DHT22;1795;52.074;4.754;2022-12-18T13:10:12;-1.10;99.90
3562;DHT22;1795;52.074;4.754;2022-12-18T13:12:52;-1.10;99.90
3562;DHT22;1795;52.074;4.754;2022-12-18T13:15:29;-1.20;99.90
3562;DHT22;1795;52.074;4.754;2022-12-18T13:18:17;-1.20;99.90
3562;DHT22;1795;52.074;4.754;2022-12-18T13:20:49;-1.20;99.90
3562;DHT22;1795;52.074;4.754;2022-12-18T13:23:31;-1.10;99.90
3562;DHT22;1795;52.074;4.754;2022-12-18T13:26:30;-1.20;99.90
3562;DHT22;1795;52.074;4.754;2022-12-18T13:29:00;-1.10;99.90
3562;DHT22;1795;52.074;4.754;2022-12-18T13:32:10;-0.90;99.90
3562;DHT22;1795;52.074;4.754;2022-12-18T13:34:48;-1.10;99.90
3562;DHT22;1795;52.074;4.754;2022-12-18T13:37:42;-0.90;99.90
3562;DHT22;1795;52.074;4.754;2022-12-18T13:43:35;-1.10;99.90
3562;DHT22;1795;52.074;4.754;2022-12-18T13:46:21;-1.00;99.90
3562;DHT22;1795;52.074;4.754;2022-12-18T13:48:53;-1.00;99.90
3562;DHT22;1795;52.074;4.754;2022-12-18T13:51:23;-1.00;99.90
3562;DHT22;1795;52.074;4.754;2022-12-18T13:53:54;-1.00;99.90
3562;DHT22;1795;52.074;4.754;2022-12-18T13:56:24;-1.00;99.90
3562;DHT22;1795;52.074;4.754;2022-12-18T13:59:13;-1.00;99.90
3562;DHT22;1795;52.074;4.754;2022-12-18T14:01:43;-0.80;99.90
3562;DHT22;1795;52.074;4.754;2022-12-18T14:04:17;-1.00;99.90
3562;DHT22;1795;52.074;4.754;2022-12-18T14:06:46;-0.80;99.90
3562;DHT22;1795;52.074;4.754;2022-12-18T14:09:16;-1.00;99.90
3562;DHT22;1795;52.074;4.754;2022-12-18T14:11:48;-0.90;99.90
3562;DHT22;1795;52.074;4.754;2022-12-18T14:14:19;-0.90;99.90
3562;DHT22;1795;52.074;4.754;2022-12-18T14:16:50;-0.90;99.90
3562;DHT22;1795;52.074;4.754;2022-12-18T14:19:18;-0.80;99.90
3562;DHT22;1795;52.074;4.754;2022-12-18T14:21:47;-0.80;99.90
3562;DHT22;1795;52.074;4.754;2022-12-18T14:24:17;-0.70;99.90
3562;DHT22;1795;52.074;4.754;2022-12-18T14:26:46;-0.80;99.90
3562;DHT22;1795;52.074;4.754;2022-12-18T14:29:26;-0.90;99.90
3562;DHT22;1795;52.074;4.754;2022-12-18T14:32:09;-0.70;99.90
3562;DHT22;1795;52.074;4.754;2022-12-18T14:34:44;-0.70;99.90
3562;DHT22;1795;52.074;4.754;2022-12-18T14:37:14;-0.80;99.90
3562;DHT22;1795;52.074;4.754;2022-12-18T14:39:55;-0.80;99.90
3562;DHT22;1795;52.074;4.754;2022-12-18T14:42:25;-0.70;99.90
3562;DHT22;1795;52.074;4.754;2022-12-18T14:45:34;-0.70;99.90
3562;DHT22;1795;52.074;4.754;2022-12-18T14:48:09;-0.80;99.90
3562;DHT22;1795;52.074;4.754;2022-12-18T14:50:44;-0.80;99.90
3562;DHT22;1795;52.074;4.754;2022-12-18T14:53:21;-0.70;99.90
3562;DHT22;1795;52.074;4.754;2022-12-18T14:55:50;-0.70;99.90
3562;DHT22;1795;52.074;4.754;2022-12-18T14:58:18;-0.70;99.90
3562;DHT22;1795;52.074;4.754;2022-12-18T15:00:48;-0.70;99.90
3562;DHT22;1795;52.074;4.754;2022-12-18T15:03:18;-0.70;99.90
3562;DHT22;1795;52.074;4.754;2022-12-18T15:05:48;-0.80;99.90
3562;DHT22;1795;52.074;4.754;2022-12-18T15:08:32;-0.70;99.90
3562;DHT22;1795;52.074;4.754;2022-12-18T15:11:02;-0.60;99.90
3562;DHT22;1795;52.074;4.754;2022-12-18T15:13:38;-0.70;99.90
3562;DHT22;1795;52.074;4.754;2022-12-18T15:16:11;-0.80;99.90
3562;DHT22;1795;52.074;4.754;2022-12-18T15:18:41;-0.80;99.90
3562;DHT22;1795;52.074;4.754;2022-12-18T15:21:17;-0.80;99.90
3562;DHT22;1795;52.074;4.754;2022-12-18T15:23:49;-0.80;99.90
3562;DHT22;1795;52.074;4.754;2022-12-18T15:26:19;-0.80;99.90
3562;DHT22;1795;52.074;4.754;2022-12-18T15:28:49;-0.70;99.90
3562;DHT22;1795;52.074;4.754;2022-12-18T15:31:24;-0.70;99.90
3562;DHT22;1795;52.074;4.754;2022-12-18T15:34:13;-0.80;99.90
3562;DHT22;1795;52.074;4.754;2022-12-18T15:36:41;-0.70;99.90
3562;DHT22;1795;52.074;4.754;2022-12-18T15:39:11;-0.80;99.90
3562;DHT22;1795;52.074;4.754;2022-12-18T15:41:40;-0.70;99.90
3562;DHT22;1795;52.074;4.754;2022-12-18T15:44:28;-0.90;99.90
3562;DHT22;1795;52.074;4.754;2022-12-18T15:46:59;-0.80;99.90
3562;DHT22;1795;52.074;4.754;2022-12-18T15:49:27;-0.70;99.90
3562;DHT22;1795;52.074;4.754;2022-12-18T15:51:58;-0.90;99.90
3562;DHT22;1795;52.074;4.754;2022-12-18T15:54:26;-0.80;99.90
3562;DHT22;1795;52.074;4.754;2022-12-18T15:57:12;-0.90;99.90
3562;DHT22;1795;52.074;4.754;2022-12-18T15:59:54;-0.80;99.90
3562;DHT22;1795;52.074;4.754;2022-12-18T16:02:26;-0.90;99.90
3562;DHT22;1795;52.074;4.754;2022-12-18T16:04:55;-0.80;99.90
3562;DHT22;1795;52.074;4.754;2022-12-18T16:07:23;-0.90;99.90
3562;DHT22;1795;52.074;4.754;2022-12-18T16:09:56;-0.70;99.90
3562;DHT22;1795;52.074;4.754;2022-12-18T16:12:25;-0.80;99.90
3562;DHT22;1795;52.074;4.754;2022-12-18T16:14:53;-0.80;99.90
3562;DHT22;1795;52.074;4.754;2022-12-18T16:17:21;-0.70;99.90
3562;DHT22;1795;52.074;4.754;2022-12-18T16:19:51;-0.90;99.90
3562;DHT22;1795;52.074;4.754;2022-12-18T16:22:21;-0.80;99.90
3562;DHT22;1795;52.074;4.754;2022-12-18T16:24:50;-0.80;99.90
3562;DHT22;1795;52.074;4.754;2022-12-18T16:27:18;-0.70;99.90
3562;DHT22;1795;52.074;4.754;2022-12-18T16:29:47;-0.80;99.90
3562;DHT22;1795;52.074;4.754;2022-12-18T16:32:16;-0.90;99.90
3562;DHT22;1795;52.074;4.754;2022-12-18T16:34:46;-0.80;99.90
3562;DHT22;1795;52.074;4.754;2022-12-18T16:37:16;-0.80;99.90
3562;DHT22;1795;52.074;4.754;2022-12-18T16:39:44;-0.80;99.90
3562;DHT22;1795;52.074;4.754;2022-12-18T16:42:14;-0.80;99.90
3562;DHT22;1795;52.074;4.754;2022-12-18T16:44:43;-0.90;99.90